createdAt,value
2018-07-21T00:00:59.739Z,9.33
2018-07-21T00:03:27.333Z,8.10
2018-07-21T00:05:55.070Z,7.73
2018-07-21T00:08:22.664Z,7.10
2018-07-21T00:10:50.301Z,7.97
2018-07-21T00:13:18.025Z,7.00
2018-07-21T00:15:45.715Z,7.17
2018-07-21T00:18:13.430Z,6.57
2018-07-21T00:20:41.100Z,7.17
2018-07-21T00:23:08.715Z,7.23
2018-07-21T00:25:36.351Z,8.10
2018-07-21T00:28:03.960Z,7.53
2018-07-21T00:30:31.648Z,7.23
2018-07-21T00:32:59.260Z,7.50
2018-07-21T00:35:26.887Z,7.17
2018-07-21T00:37:54.476Z,6.77
2018-07-21T00:40:22.074Z,5.70
2018-07-21T00:42:49.737Z,7.20
2018-07-21T00:45:17.377Z,7.20
2018-07-21T00:47:45.022Z,6.80
2018-07-21T00:50:12.806Z,5.90
2018-07-21T00:52:40.345Z,6.80
2018-07-21T00:55:08.030Z,7.83
2018-07-21T00:57:35.669Z,6.10
2018-07-21T01:00:03.992Z,7.07
2018-07-21T01:02:31.657Z,7.23
2018-07-21T01:04:59.305Z,6.97
2018-07-21T01:07:26.990Z,6.63
2018-07-21T01:09:54.629Z,6.47
2018-07-21T01:12:22.254Z,6.87
2018-07-21T01:14:49.933Z,6.50
2018-07-21T01:17:17.605Z,6.30
2018-07-21T01:19:45.241Z,6.53
2018-07-21T01:22:12.886Z,6.30
2018-07-21T01:24:40.521Z,6.03
2018-07-21T01:27:08.137Z,6.17
2018-07-21T01:29:35.746Z,6.87
2018-07-21T01:32:03.350Z,6.73
2018-07-21T01:34:31.028Z,5.53
2018-07-21T01:36:58.691Z,6.40
2018-07-21T01:39:26.293Z,6.03
2018-07-21T01:41:53.953Z,6.10
2018-07-21T01:44:21.595Z,6.17
2018-07-21T01:46:49.213Z,5.93
2018-07-21T01:49:16.832Z,6.10
2018-07-21T01:51:44.478Z,6.17
2018-07-21T01:54:12.164Z,6.23
2018-07-21T01:56:39.796Z,6.30
2018-07-21T01:59:07.400Z,6.40
2018-07-21T02:01:35.034Z,6.50
2018-07-21T02:04:02.676Z,6.53
2018-07-21T02:06:30.271Z,5.87
2018-07-21T02:08:57.924Z,6.30
2018-07-21T02:11:25.523Z,5.90
2018-07-21T02:13:53.172Z,6.53
2018-07-21T02:16:20.797Z,6.00
2018-07-21T02:18:48.430Z,6.40
2018-07-21T02:21:16.091Z,5.87
2018-07-21T02:23:43.765Z,6.30
2018-07-21T02:26:11.428Z,6.17
2018-07-21T02:28:39.049Z,6.03
2018-07-21T02:31:06.733Z,6.13
2018-07-21T02:33:34.393Z,5.40
2018-07-21T02:36:02.009Z,6.20
2018-07-21T02:38:29.625Z,6.07
2018-07-21T02:40:57.264Z,6.27
2018-07-21T02:43:24.938Z,5.23
2018-07-21T02:45:52.601Z,6.43
2018-07-21T02:48:20.217Z,5.47
2018-07-21T02:50:47.832Z,6.23
2018-07-21T02:53:15.462Z,6.47
2018-07-21T02:55:43.091Z,5.97
2018-07-21T02:58:10.702Z,5.93
2018-07-21T03:00:38.376Z,6.40
2018-07-21T03:03:05.984Z,5.43
2018-07-21T03:05:33.653Z,6.03
2018-07-21T03:08:01.165Z,5.57
2018-07-21T03:10:29.045Z,6.00
2018-07-21T03:12:56.678Z,6.23
2018-07-21T03:15:24.323Z,5.73
2018-07-21T03:17:51.939Z,6.53
2018-07-21T03:20:19.611Z,6.70
2018-07-21T03:22:47.274Z,7.63
2018-07-21T03:25:14.941Z,7.93
2018-07-21T03:27:42.546Z,8.93
2018-07-21T03:30:10.164Z,8.53
2018-07-21T03:32:37.777Z,8.23
2018-07-21T03:35:05.422Z,7.93
2018-07-21T03:37:33.019Z,7.77
2018-07-21T03:40:00.883Z,7.63
2018-07-21T03:42:28.498Z,9.20
2018-07-21T03:44:56.144Z,9.17
2018-07-21T03:47:23.725Z,9.17
2018-07-21T03:49:51.325Z,8.43
2018-07-21T03:52:18.991Z,9.27
2018-07-21T03:54:46.621Z,9.90
2018-07-21T03:57:14.253Z,10.73
2018-07-21T03:59:41.859Z,8.90
2018-07-21T04:02:09.619Z,9.67
2018-07-21T04:04:37.332Z,10.37
2018-07-21T04:07:05.220Z,9.90
2018-07-21T04:09:32.839Z,9.00
2018-07-21T04:12:00.548Z,11.00
2018-07-21T04:14:28.165Z,10.40
2018-07-21T04:16:55.788Z,9.67
2018-07-21T04:19:23.421Z,10.13
2018-07-21T04:21:51.012Z,10.00
2018-07-21T04:24:18.725Z,9.83
2018-07-21T04:26:46.285Z,10.60
2018-07-21T04:29:13.946Z,10.70
2018-07-21T04:31:41.706Z,9.57
2018-07-21T04:34:09.355Z,10.43
2018-07-21T04:36:36.881Z,10.90
2018-07-21T04:39:07.477Z,10.90
2018-07-21T04:41:35.124Z,9.60
2018-07-21T04:44:03.509Z,11.60
2018-07-21T04:46:31.183Z,11.60
2018-07-21T04:48:58.810Z,11.40
2018-07-21T04:51:26.318Z,12.60
2018-07-21T04:53:53.975Z,12.03
2018-07-21T04:56:21.590Z,12.00
2018-07-21T04:58:49.340Z,12.27
2018-07-21T05:01:16.962Z,13.17
2018-07-21T05:03:44.581Z,12.40
2018-07-21T05:06:12.249Z,12.67
2018-07-21T05:08:39.900Z,13.90
2018-07-21T05:11:07.522Z,11.93
2018-07-21T05:13:35.269Z,11.90
2018-07-21T05:16:02.951Z,12.87
2018-07-21T05:18:30.668Z,11.77
2018-07-21T05:20:58.318Z,12.50
2018-07-21T05:23:25.960Z,11.87
2018-07-21T05:25:53.601Z,12.43
2018-07-21T05:28:21.214Z,12.70
2018-07-21T05:30:48.871Z,14.07
2018-07-21T05:33:16.486Z,14.30
2018-07-21T05:35:44.113Z,14.60
2018-07-21T05:38:11.751Z,14.93
2018-07-21T05:40:39.386Z,14.53
2018-07-21T05:43:07.117Z,14.40
2018-07-21T05:45:34.744Z,12.90
2018-07-21T05:48:02.388Z,13.57
2018-07-21T05:50:30.025Z,14.43
2018-07-21T05:52:57.645Z,13.57
2018-07-21T05:55:25.322Z,13.60
2018-07-21T05:57:53.164Z,12.73
2018-07-21T06:00:20.793Z,13.43
2018-07-21T06:02:48.521Z,13.93
2018-07-21T06:05:16.102Z,13.13
2018-07-21T06:07:43.763Z,13.33
2018-07-21T06:10:11.302Z,14.60
2018-07-21T06:12:38.945Z,13.57
2018-07-21T06:15:06.878Z,13.13
2018-07-21T06:17:34.491Z,12.73
2018-07-21T06:20:02.150Z,14.13
2018-07-21T06:22:30.362Z,12.80
2018-07-21T06:24:58.016Z,12.93
2018-07-21T06:27:25.712Z,11.70
2018-07-21T06:29:53.403Z,12.27
2018-07-21T06:32:21.053Z,12.93
2018-07-21T06:34:48.697Z,12.07
2018-07-21T06:37:16.336Z,13.10
2018-07-21T06:39:44.005Z,13.37
2018-07-21T06:42:11.638Z,12.83
2018-07-21T06:44:39.246Z,12.90
2018-07-21T06:47:06.942Z,13.47
2018-07-21T06:49:34.607Z,13.13
2018-07-21T06:52:02.328Z,11.80
2018-07-21T06:54:30.103Z,11.03
2018-07-21T06:56:57.752Z,11.13
2018-07-21T06:59:25.374Z,9.40
2018-07-21T07:01:53.025Z,11.33
2018-07-21T07:04:20.745Z,11.13
2018-07-21T07:06:48.355Z,11.40
2018-07-21T07:09:16.019Z,9.97
2018-07-21T07:11:43.717Z,10.43
2018-07-21T07:14:11.364Z,10.67
2018-07-21T07:16:39.013Z,9.67
2018-07-21T07:19:06.640Z,10.30
2018-07-21T07:21:34.287Z,9.97
2018-07-21T07:24:02.006Z,8.97
2018-07-21T07:26:29.628Z,9.27
2018-07-21T07:28:57.348Z,9.07
2018-07-21T07:31:25.001Z,9.57
2018-07-21T07:33:52.596Z,8.97
2018-07-21T07:36:20.249Z,9.83
2018-07-21T07:38:47.874Z,9.80
2018-07-21T07:41:15.540Z,11.47
2018-07-21T07:43:43.176Z,11.05
2018-07-21T07:46:10.814Z,9.25
2018-07-21T07:48:38.444Z,7.50
2018-07-21T07:51:06.120Z,7.95
2018-07-21T07:53:33.848Z,8.68
2018-07-21T07:56:01.445Z,7.58
2018-07-21T07:58:29.110Z,8.30
2018-07-21T08:00:56.736Z,8.05
2018-07-21T08:03:24.372Z,7.42
2018-07-21T08:05:52.042Z,9.78
2018-07-21T08:08:19.767Z,8.83
2018-07-21T08:10:47.451Z,7.62
2018-07-21T08:13:15.091Z,7.60
2018-07-21T08:15:42.740Z,7.33
2018-07-21T08:18:10.471Z,7.37
2018-07-21T08:20:38.058Z,7.70
2018-07-21T08:23:06.216Z,8.10
2018-07-21T08:25:33.845Z,6.72
2018-07-21T08:28:01.566Z,6.05
2018-07-21T08:30:29.204Z,6.60
2018-07-21T08:32:56.853Z,5.60
2018-07-21T08:35:24.489Z,7.42
2018-07-21T08:37:52.119Z,8.15
2018-07-21T08:40:19.795Z,6.03
2018-07-21T08:42:47.460Z,6.72
2018-07-21T08:45:15.277Z,7.22
2018-07-21T08:47:42.933Z,6.83
2018-07-21T08:50:10.560Z,7.33
2018-07-21T08:52:38.160Z,7.42
2018-07-21T08:55:05.824Z,7.28
2018-07-21T08:57:33.488Z,6.78
2018-07-21T09:00:01.116Z,6.40
2018-07-21T09:02:28.892Z,6.78
2018-07-21T09:04:56.556Z,6.42
2018-07-21T09:07:24.236Z,5.92
2018-07-21T09:09:51.868Z,5.70
2018-07-21T09:12:19.541Z,6.10
2018-07-21T09:14:47.188Z,4.97
2018-07-21T09:17:18.555Z,7.60
2018-07-21T09:19:47.023Z,6.33
2018-07-21T09:22:14.714Z,7.50
2018-07-21T09:24:42.336Z,7.40
2018-07-21T09:27:10.050Z,8.28
2018-07-21T09:29:37.646Z,7.47
2018-07-21T09:32:05.761Z,7.40
2018-07-21T09:34:33.411Z,8.73
2018-07-21T09:37:01.060Z,7.17
2018-07-21T09:39:28.691Z,6.97
2018-07-21T09:41:56.709Z,6.85
2018-07-21T09:44:24.328Z,6.10
2018-07-21T09:46:52.004Z,6.05
2018-07-21T09:49:19.688Z,6.12
2018-07-21T09:51:47.340Z,6.30
2018-07-21T09:54:15.053Z,5.78
2018-07-21T09:56:42.661Z,6.40
2018-07-21T09:59:10.314Z,5.37
2018-07-21T10:01:37.977Z,6.12
2018-07-21T10:04:05.633Z,5.42
2018-07-21T10:06:33.272Z,4.85
2018-07-21T10:09:00.951Z,5.33
2018-07-21T10:11:28.579Z,6.25
2018-07-21T10:13:56.261Z,5.95
2018-07-21T10:16:23.904Z,7.03
2018-07-21T10:18:51.589Z,6.03
2018-07-21T10:21:19.548Z,5.90
2018-07-21T10:23:47.240Z,6.55
2018-07-21T10:26:20.621Z,6.78
2018-07-21T10:28:53.957Z,7.30
2018-07-21T10:31:21.584Z,6.78
2018-07-21T10:33:49.231Z,5.45
2018-07-21T10:36:16.896Z,6.37
2018-07-21T10:38:44.557Z,6.22
2018-07-21T10:41:12.179Z,5.50
2018-07-21T10:43:39.827Z,5.97
2018-07-21T10:46:07.519Z,6.25
2018-07-21T10:48:35.116Z,6.78
2018-07-21T10:51:02.748Z,6.83
2018-07-21T10:53:30.341Z,6.03
2018-07-21T10:55:57.952Z,6.90
2018-07-21T10:58:25.557Z,5.40
2018-07-21T11:00:53.209Z,5.95
2018-07-21T11:03:20.905Z,7.22
2018-07-21T11:05:48.564Z,5.87
2018-07-21T11:08:16.189Z,6.62
2018-07-21T11:10:43.796Z,6.15
2018-07-21T11:13:11.337Z,6.00
2018-07-21T11:15:41.803Z,6.10
2018-07-21T11:18:09.546Z,6.15
2018-07-21T11:20:37.187Z,6.10
2018-07-21T11:23:05.057Z,6.58
2018-07-21T11:25:32.717Z,6.30
2018-07-21T11:28:00.382Z,6.22
2018-07-21T11:30:28.041Z,6.75
2018-07-21T11:32:55.708Z,6.20
2018-07-21T11:35:23.300Z,5.90
2018-07-21T11:37:50.923Z,6.65
2018-07-21T11:40:18.605Z,5.45
2018-07-21T11:42:46.406Z,6.45
2018-07-21T11:45:14.120Z,6.25
2018-07-21T11:47:41.756Z,7.15
2018-07-21T11:50:09.464Z,6.12
2018-07-21T11:52:37.100Z,5.47
2018-07-21T11:55:05.080Z,5.90
2018-07-21T11:57:32.586Z,6.28
2018-07-21T12:00:00.232Z,6.30
2018-07-21T12:02:27.873Z,7.75
2018-07-21T12:04:55.539Z,6.80
2018-07-21T12:07:27.445Z,6.03
2018-07-21T12:09:55.093Z,6.03
2018-07-21T12:12:22.764Z,7.50
2018-07-21T12:14:50.423Z,6.95
2018-07-21T12:17:18.049Z,5.87
2018-07-21T12:19:45.659Z,6.20
2018-07-21T12:22:13.319Z,6.20
2018-07-21T12:24:40.939Z,6.55
2018-07-21T12:27:08.602Z,6.72
2018-07-21T12:29:36.215Z,6.53
2018-07-21T12:32:03.873Z,7.40
2018-07-21T12:34:31.479Z,6.67
2018-07-21T12:36:59.138Z,6.37
2018-07-21T12:39:26.749Z,6.05
2018-07-21T12:41:54.422Z,8.33
2018-07-21T12:44:22.197Z,7.10
2018-07-21T12:46:49.808Z,6.37
2018-07-21T12:49:18.030Z,7.00
2018-07-21T12:51:45.694Z,6.53
2018-07-21T12:54:13.432Z,6.50
2018-07-21T12:56:41.065Z,6.70
2018-07-21T12:59:08.712Z,7.50
2018-07-21T13:01:36.356Z,9.28
2018-07-21T13:04:04.016Z,6.80
2018-07-21T13:06:31.633Z,7.25
2018-07-21T13:08:59.273Z,7.17
2018-07-21T13:11:26.969Z,6.33
2018-07-21T13:13:54.797Z,7.05
2018-07-21T13:16:23.507Z,6.35
2018-07-21T13:18:51.196Z,6.10
2018-07-21T13:21:18.842Z,6.92
2018-07-21T13:23:46.395Z,6.97
2018-07-21T13:26:14.117Z,6.47
2018-07-21T13:28:41.756Z,6.37
2018-07-21T13:31:09.499Z,5.95
2018-07-21T13:33:37.194Z,6.42
2018-07-21T13:36:05.262Z,6.78
2018-07-21T13:38:32.903Z,6.70
2018-07-21T13:41:00.553Z,6.15
2018-07-21T13:43:28.171Z,6.58
2018-07-21T13:45:55.987Z,6.83
2018-07-21T13:48:23.603Z,6.40
2018-07-21T13:50:51.225Z,6.70
2018-07-21T13:53:18.877Z,6.40
2018-07-21T13:55:46.476Z,6.85
2018-07-21T13:58:14.233Z,6.15
2018-07-21T14:00:41.911Z,6.15
2018-07-21T14:03:09.755Z,6.47
2018-07-21T14:05:37.451Z,6.30
2018-07-21T14:08:05.365Z,6.78
2018-07-21T14:10:33.283Z,6.17
2018-07-21T14:13:01.027Z,6.30
2018-07-21T14:15:28.696Z,5.83
2018-07-21T14:17:56.404Z,7.90
2018-07-21T14:20:24.200Z,7.03
2018-07-21T14:22:51.972Z,7.25
2018-07-21T14:25:19.669Z,6.67
2018-07-21T14:27:47.304Z,6.60
2018-07-21T14:30:15.104Z,7.58
2018-07-21T14:32:42.762Z,7.00
2018-07-21T14:35:10.493Z,6.50
2018-07-21T14:37:38.129Z,7.10
2018-07-21T14:40:06.115Z,6.95
2018-07-21T14:42:33.768Z,6.53
2018-07-21T14:45:01.372Z,6.97
2018-07-21T14:47:29.068Z,6.87
2018-07-21T14:49:56.520Z,6.33
2018-07-21T14:52:24.176Z,7.37
2018-07-21T14:54:51.943Z,6.87
2018-07-21T14:57:19.728Z,7.08
2018-07-21T14:59:47.461Z,7.10
2018-07-21T15:02:15.089Z,7.42
2018-07-21T15:04:42.776Z,6.97
2018-07-21T15:07:10.564Z,7.25
2018-07-21T15:09:38.281Z,6.70
2018-07-21T15:12:05.844Z,7.50
2018-07-21T15:14:33.488Z,7.42
2018-07-21T15:17:01.141Z,8.48
2018-07-21T15:19:28.876Z,8.00
2018-07-21T15:21:56.556Z,7.22
2018-07-21T15:24:24.219Z,7.33
2018-07-21T15:26:51.969Z,7.67
2018-07-21T15:29:20.047Z,6.92
2018-07-21T15:31:47.679Z,6.95
2018-07-21T15:34:15.364Z,7.97
2018-07-21T15:36:43.034Z,6.85
2018-07-21T15:39:10.761Z,7.17
2018-07-21T15:41:38.451Z,8.00
2018-07-21T15:44:06.406Z,7.05
2018-07-21T15:46:34.057Z,6.65
2018-07-21T15:49:01.754Z,6.62
2018-07-21T15:51:29.508Z,5.85
2018-07-21T15:53:57.147Z,6.67
2018-07-21T15:56:24.776Z,6.50
2018-07-21T15:58:52.460Z,6.58
2018-07-21T16:01:20.131Z,6.62
2018-07-21T16:03:47.777Z,6.72
2018-07-21T16:06:15.452Z,6.47
2018-07-21T16:08:43.163Z,6.58
2018-07-21T16:11:10.793Z,6.55
2018-07-21T16:13:38.490Z,6.33
2018-07-21T16:16:06.303Z,7.53
2018-07-21T16:18:33.936Z,7.78
2018-07-21T16:21:08.091Z,7.90
2018-07-21T16:23:35.771Z,7.67
2018-07-21T16:26:03.487Z,8.93
2018-07-21T16:28:31.149Z,6.95
2018-07-21T16:30:58.868Z,7.55
2018-07-21T16:33:26.779Z,7.05
2018-07-21T16:35:54.443Z,7.30
2018-07-21T16:38:22.183Z,6.55
2018-07-21T16:40:49.827Z,6.83
2018-07-21T16:43:17.502Z,7.08
2018-07-21T16:45:45.009Z,6.70
2018-07-21T16:48:12.635Z,6.95
2018-07-21T16:50:40.437Z,6.90
2018-07-21T16:53:08.120Z,6.70
2018-07-21T16:55:35.797Z,6.12
2018-07-21T16:58:03.548Z,7.05
2018-07-21T17:00:31.185Z,6.45
2018-07-21T17:02:58.812Z,6.45
2018-07-21T17:05:26.516Z,6.62
2018-07-21T17:07:54.203Z,7.12
2018-07-21T17:10:21.841Z,7.33
2018-07-21T17:12:51.629Z,7.70
2018-07-21T17:15:19.252Z,8.33
2018-07-21T17:17:46.863Z,8.90
2018-07-21T17:20:14.564Z,8.55
2018-07-21T17:22:42.192Z,7.90
2018-07-21T17:25:09.837Z,8.90
2018-07-21T17:27:37.490Z,8.53
2018-07-21T17:30:05.267Z,7.92
2018-07-21T17:32:32.876Z,8.43
2018-07-21T17:35:00.552Z,7.65
2018-07-21T17:37:28.565Z,7.75
2018-07-21T17:39:56.285Z,8.53
2018-07-21T17:42:23.985Z,8.15
2018-07-21T17:44:51.678Z,8.88
2018-07-21T17:47:19.364Z,9.08
2018-07-21T17:49:47.097Z,8.48
2018-07-21T17:52:14.904Z,8.28
2018-07-21T17:54:42.500Z,8.33
2018-07-21T17:57:11.135Z,9.40
2018-07-21T17:59:38.784Z,9.05
2018-07-21T18:02:06.483Z,10.17
2018-07-21T18:04:34.110Z,10.50
2018-07-21T18:07:01.796Z,11.13
2018-07-21T18:09:29.469Z,10.83
2018-07-21T18:11:57.093Z,11.73
2018-07-21T18:14:24.773Z,12.73
2018-07-21T18:16:52.491Z,13.47
2018-07-21T18:19:20.114Z,11.83
2018-07-21T18:21:47.748Z,12.87
2018-07-21T18:24:15.252Z,11.27
2018-07-21T18:26:42.876Z,11.60
2018-07-21T18:29:10.510Z,12.07
2018-07-21T18:31:38.220Z,11.23
2018-07-21T18:34:06.273Z,10.77
2018-07-21T18:36:33.939Z,9.97
2018-07-21T18:39:01.571Z,9.77
2018-07-21T18:41:29.217Z,9.77
2018-07-21T18:43:56.897Z,10.10
2018-07-21T18:46:24.520Z,9.80
2018-07-21T18:51:32.124Z,11.03
2018-07-21T18:53:59.787Z,12.07
2018-07-21T18:56:27.491Z,13.37
2018-07-21T18:58:55.281Z,11.87
2018-07-21T19:01:22.893Z,12.77
2018-07-21T19:03:50.561Z,12.60
2018-07-21T19:06:18.241Z,13.17
2018-07-21T19:08:51.418Z,15.40
2018-07-21T19:11:19.061Z,14.43
2018-07-21T19:13:46.871Z,14.20
2018-07-21T19:16:20.138Z,14.27
2018-07-21T19:18:48.136Z,13.83
2018-07-21T19:21:19.374Z,13.87
2018-07-21T19:23:48.037Z,14.43
2018-07-21T19:27:22.130Z,14.20
2018-07-21T19:29:50.124Z,14.00
2018-07-21T19:32:23.591Z,12.93
2018-07-21T19:34:51.273Z,12.57
2018-07-21T19:37:25.034Z,11.87
2018-07-21T19:39:53.148Z,13.17
2018-07-21T19:42:21.114Z,11.13
2018-07-21T19:44:54.268Z,11.63
2018-07-21T19:47:22.066Z,11.37
2018-07-21T19:49:49.649Z,11.83
2018-07-21T19:52:17.325Z,10.00
2018-07-21T19:54:44.981Z,10.20
2018-07-21T19:57:12.650Z,11.03
2018-07-21T19:59:40.295Z,10.57
2018-07-21T20:02:08.163Z,9.07
2018-07-21T20:04:35.786Z,9.37
2018-07-21T20:07:05.092Z,9.53
2018-07-21T20:09:32.816Z,9.07
2018-07-21T20:12:00.511Z,9.80
2018-07-21T20:14:28.197Z,10.20
2018-07-21T20:16:57.750Z,11.80
2018-07-21T20:19:25.449Z,10.67
2018-07-21T20:21:53.117Z,10.90
2018-07-21T20:24:20.849Z,12.87
2018-07-21T20:26:48.570Z,10.93
2018-07-21T20:29:16.228Z,10.50
2018-07-21T20:31:43.889Z,9.27
2018-07-21T20:34:11.582Z,10.03
2018-07-21T20:36:39.452Z,9.73
2018-07-21T20:39:08.427Z,9.57
2018-07-21T20:41:36.240Z,9.37
2018-07-21T20:44:04.216Z,9.20
2018-07-21T20:46:32.052Z,9.20
2018-07-21T20:48:59.732Z,9.30
2018-07-21T20:51:27.505Z,9.10
2018-07-21T20:53:55.190Z,9.27
2018-07-21T20:56:22.725Z,9.97
2018-07-21T20:58:50.371Z,10.30
2018-07-21T21:01:18.015Z,10.67
2018-07-21T21:03:45.663Z,10.47
2018-07-21T21:06:13.394Z,12.17
2018-07-21T21:08:41.119Z,11.70
2018-07-21T21:11:09.805Z,11.67
2018-07-21T21:13:37.506Z,12.27
2018-07-21T21:16:05.056Z,12.17
2018-07-21T21:18:32.760Z,12.30
2018-07-21T21:21:00.371Z,11.63
2018-07-21T21:23:28.059Z,11.10
2018-07-21T21:25:55.706Z,10.90
2018-07-21T21:28:23.217Z,12.23
2018-07-21T21:30:50.862Z,10.93
2018-07-21T21:33:18.534Z,11.27
2018-07-21T21:35:46.154Z,11.37
2018-07-21T21:38:13.679Z,9.97
2018-07-21T21:43:15.721Z,10.13
2018-07-21T21:45:43.388Z,10.10
2018-07-21T21:48:11.058Z,11.13
2018-07-21T21:50:38.675Z,10.97
2018-07-21T21:53:06.383Z,10.60
2018-07-21T21:55:34.002Z,10.60
2018-07-21T21:58:01.680Z,11.00
2018-07-21T22:01:11.687Z,10.00
2018-07-21T22:03:39.301Z,9.83
2018-07-21T22:06:07.013Z,10.33
2018-07-21T22:08:34.645Z,10.70
2018-07-21T22:11:02.735Z,10.27
2018-07-21T22:13:30.516Z,9.63
2018-07-21T22:15:58.680Z,9.63
2018-07-21T22:18:27.056Z,10.13
2018-07-21T22:20:54.694Z,10.40
2018-07-21T22:23:22.421Z,9.87
2018-07-21T22:25:50.110Z,9.93
2018-07-21T22:28:17.701Z,10.70
2018-07-21T22:30:45.364Z,10.57
2018-07-21T22:33:12.976Z,11.10
2018-07-21T22:35:40.667Z,11.20
2018-07-21T22:38:08.317Z,12.03
2018-07-21T22:40:35.966Z,9.57
2018-07-21T22:43:03.587Z,10.23
2018-07-21T22:45:31.251Z,10.90
2018-07-21T22:47:58.880Z,10.50
2018-07-21T22:50:26.516Z,11.40
2018-07-21T22:52:54.367Z,10.27
2018-07-21T22:55:21.996Z,11.40
2018-07-21T22:57:49.625Z,11.13
2018-07-21T23:00:17.323Z,12.13
2018-07-21T23:02:44.970Z,11.63
2018-07-21T23:05:12.613Z,11.70
2018-07-21T23:07:40.253Z,11.43
2018-07-21T23:10:08.084Z,10.80
2018-07-21T23:12:36.132Z,11.13
2018-07-21T23:15:04.747Z,11.40
2018-07-21T23:17:32.413Z,12.23
2018-07-21T23:20:00.023Z,10.47
2018-07-21T23:22:27.665Z,11.33
2018-07-21T23:24:55.313Z,11.00
2018-07-21T23:27:22.970Z,10.53
2018-07-21T23:29:50.647Z,10.57
2018-07-21T23:32:18.313Z,11.77
2018-07-21T23:34:45.927Z,10.73
2018-07-21T23:37:13.593Z,11.10
2018-07-21T23:39:41.200Z,11.70
2018-07-21T23:42:08.819Z,11.53
2018-07-21T23:44:36.432Z,12.13
2018-07-21T23:47:04.083Z,11.67
2018-07-21T23:49:31.717Z,11.27
2018-07-21T23:51:59.344Z,11.37
2018-07-21T23:54:26.971Z,11.70
2018-07-21T23:56:54.607Z,11.10
2018-07-21T23:59:22.226Z,10.93
